Time;durP1;ratioP1;P1;durP2;ratioP2;P2;SDS_P1;SDS_P2;PMS_P1;PMS_P2;Temp;Humidity;BMP_temperature;BMP_pressure;BME280_temperature;BME280_humidity;BME280_pressure;Samples;Min_cycle;Max_cycle;Signal;HPM_P1;HPM_P2
2023/11/22 00:02:02;;;;;;;4.07;2.75;;;3.00;99.90;;;;;;5068323;28;20373;-62
2023/11/22 00:04:28;;;;;;;2.35;2.05;;;3.00;99.90;;;;;;5064428;28;20048;-62
2023/11/22 00:06:54;;;;;;;3.15;2.30;;;3.00;99.90;;;;;;5060158;28;20044;-62
2023/11/22 00:09:22;;;;;;;5.78;2.47;;;2.90;99.90;;;;;;5051048;28;20118;-62
2023/11/22 00:11:49;;;;;;;3.47;2.03;;;2.90;99.90;;;;;;5067432;28;20416;-62
2023/11/22 00:14:15;;;;;;;2.60;2.03;;;2.90;99.90;;;;;;5065131;28;20185;-62
2023/11/22 00:16:41;;;;;;;2.58;2.17;;;2.80;99.90;;;;;;5049537;28;20123;-62
2023/11/22 00:19:07;;;;;;;2.70;2.50;;;2.80;99.90;;;;;;5050396;28;20054;-62
2023/11/22 00:21:33;;;;;;;4.05;2.50;;;2.70;99.90;;;;;;5049263;28;20041;-62
2023/11/22 00:23:58;;;;;;;3.67;2.05;;;2.60;99.90;;;;;;5043391;28;20131;-62
2023/11/22 00:26:24;;;;;;;4.28;2.13;;;2.60;99.90;;;;;;5066999;28;20135;-62
2023/11/22 00:28:52;;;;;;;2.78;2.08;;;2.60;99.90;;;;;;5049132;28;20048;-62
2023/11/22 00:31:19;;;;;;;4.97;2.30;;;2.50;99.90;;;;;;5050608;28;20032;-62
2023/11/22 00:33:44;;;;;;;2.25;1.88;;;2.50;99.90;;;;;;5048202;28;20053;-62
2023/11/22 00:36:10;;;;;;;2.30;2.10;;;2.50;99.90;;;;;;5057694;28;20103;-62
2023/11/22 00:38:37;;;;;;;2.83;2.03;;;2.40;99.90;;;;;;5055407;28;20450;-61
2023/11/22 00:41:03;;;;;;;3.47;2.20;;;2.40;99.90;;;;;;5068029;28;20048;-62
2023/11/22 00:43:29;;;;;;;6.47;2.47;;;2.40;99.90;;;;;;5050333;28;20394;-61
2023/11/22 00:45:54;;;;;;;4.53;2.40;;;2.30;99.90;;;;;;5071679;28;20421;-62
2023/11/22 00:48:20;;;;;;;2.15;1.92;;;2.30;99.90;;;;;;5068021;28;20567;-62
2023/11/22 00:50:46;;;;;;;6.22;2.38;;;2.30;99.90;;;;;;5081749;28;20135;-61
2023/11/22 00:53:11;;;;;;;7.43;2.53;;;2.30;99.90;;;;;;5064773;28;20052;-62
2023/11/22 00:55:37;;;;;;;2.50;2.30;;;2.30;99.90;;;;;;5048144;28;20045;-62
2023/11/22 00:58:04;;;;;;;4.82;2.40;;;2.20;99.90;;;;;;5030661;28;20045;-62
2023/11/22 01:00:31;;;;;;;2.72;2.50;;;2.30;99.90;;;;;;5048719;28;20057;-62
2023/11/22 01:02:56;;;;;;;2.15;1.95;;;2.20;99.90;;;;;;5031312;28;20045;-62
2023/11/22 01:05:22;;;;;;;2.58;2.17;;;2.20;99.90;;;;;;5030471;28;20506;-61
2023/11/22 01:07:48;;;;;;;3.00;2.65;;;2.10;99.90;;;;;;5052491;28;20501;-62
2023/11/22 01:10:15;;;;;;;5.45;2.63;;;2.20;99.90;;;;;;5050321;28;20049;-62
2023/11/22 01:12:44;;;;;;;4.97;2.70;;;2.20;99.90;;;;;;5014002;28;20053;-62
2023/11/22 01:15:10;;;;;;;4.75;2.88;;;2.20;99.90;;;;;;5033351;28;20087;-62
2023/11/22 01:17:35;;;;;;;2.72;2.50;;;2.30;99.90;;;;;;5041792;28;20075;-62
2023/11/22 01:20:03;;;;;;;2.63;2.22;;;2.30;99.90;;;;;;5047472;28;20084;-62
2023/11/22 01:22:29;;;;;;;6.68;2.92;;;2.30;99.90;;;;;;5059881;28;20041;-62
2023/11/22 01:24:54;;;;;;;3.95;2.17;;;2.30;99.90;;;;;;5048512;28;20083;-62
2023/11/22 01:27:20;;;;;;;4.72;2.60;;;2.20;99.90;;;;;;5066042;28;20107;-62
2023/11/22 01:29:46;;;;;;;5.07;3.10;;;2.20;99.90;;;;;;5061525;28;20502;-62
2023/11/22 01:32:12;;;;;;;4.70;3.10;;;2.20;99.90;;;;;;5065607;28;20047;-62
2023/11/22 01:34:38;;;;;;;4.45;3.38;;;2.10;99.90;;;;;;5066357;28;20052;-62
2023/11/22 01:37:04;;;;;;;4.90;3.17;;;2.10;99.90;;;;;;5047949;28;20041;-62
2023/11/22 01:39:31;;;;;;;9.88;3.60;;;2.10;99.90;;;;;;5063886;28;20082;-61
2023/11/22 01:41:56;;;;;;;7.35;3.72;;;2.00;99.90;;;;;;5034582;28;20048;-62
2023/11/22 01:44:22;;;;;;;8.85;3.90;;;2.10;99.90;;;;;;5070047;28;20379;-62
2023/11/22 01:46:49;;;;;;;5.32;3.83;;;2.20;99.90;;;;;;5067339;28;20041;-62
2023/11/22 01:49:15;;;;;;;7.43;4.28;;;2.20;99.90;;;;;;5056871;28;20051;-62
2023/11/22 01:51:41;;;;;;;8.00;4.10;;;2.20;99.90;;;;;;5069216;28;20040;-62
2023/11/22 01:54:08;;;;;;;8.60;4.30;;;2.20;99.90;;;;;;5068946;28;20045;-62
2023/11/22 01:56:37;;;;;;;6.68;4.20;;;2.10;99.90;;;;;;5069091;28;20041;-61
2023/11/22 01:59:04;;;;;;;7.60;4.10;;;2.20;99.90;;;;;;5068330;28;20043;-62
2023/11/22 02:01:31;;;;;;;8.20;4.20;;;2.10;99.90;;;;;;5069368;28;20516;-62
2023/11/22 02:03:57;;;;;;;9.05;3.72;;;2.10;99.90;;;;;;5050794;28;20127;-62
2023/11/22 02:06:24;;;;;;;10.15;4.60;;;2.10;99.90;;;;;;5047130;28;20029;-62
2023/11/22 02:08:50;;;;;;;5.95;3.83;;;2.10;99.90;;;;;;5051070;28;20056;-62
2023/11/22 02:11:22;;;;;;;9.27;3.75;;;2.10;99.90;;;;;;5048984;28;20074;-62
2023/11/22 02:13:51;;;;;;;12.00;3.90;;;2.00;99.90;;;;;;5061870;28;20524;-62
2023/11/22 02:16:20;;;;;;;4.30;3.25;;;2.00;99.90;;;;;;5050038;28;20036;-62
2023/11/22 02:18:49;;;;;;;4.82;3.38;;;1.90;99.90;;;;;;5038828;28;20124;-62
2023/11/22 02:21:17;;;;;;;14.02;3.80;;;1.90;99.90;;;;;;5066732;28;20051;-62
2023/11/22 02:23:42;;;;;;;8.32;3.40;;;1.90;99.90;;;;;;5069355;28;20036;-62
2023/11/22 02:26:08;;;;;;;4.28;3.28;;;1.90;99.90;;;;;;5068571;28;20527;-62
2023/11/22 02:28:34;;;;;;;5.95;3.50;;;1.70;99.90;;;;;;5062969;28;20537;-62
2023/11/22 02:31:00;;;;;;;6.25;4.00;;;1.80;99.90;;;;;;5068505;28;20045;-62
2023/11/22 02:33:26;;;;;;;7.63;3.70;;;1.80;99.90;;;;;;5050449;28;20802;-61
2023/11/22 02:35:51;;;;;;;8.30;3.88;;;1.80;99.90;;;;;;5068427;28;20079;-62
2023/11/22 02:38:18;;;;;;;10.70;3.40;;;1.70;99.90;;;;;;5053798;28;20482;-62
2023/11/22 02:40:44;;;;;;;5.60;3.63;;;1.80;99.90;;;;;;5069103;28;20494;-62
2023/11/22 02:43:11;;;;;;;6.68;2.92;;;1.80;99.90;;;;;;5050183;28;20065;-61
2023/11/22 02:45:38;;;;;;;4.65;2.90;;;1.70;99.90;;;;;;5050674;28;20072;-62
2023/11/22 02:48:09;;;;;;;5.60;3.17;;;1.70;99.90;;;;;;5038100;28;20760;-61
2023/11/22 02:50:35;;;;;;;4.28;3.33;;;1.70;99.90;;;;;;5040408;28;20115;-62
2023/11/22 02:53:01;;;;;;;4.25;3.35;;;1.70;99.90;;;;;;5068797;28;20044;-61
2023/11/22 02:55:27;;;;;;;6.35;3.35;;;1.70;99.90;;;;;;5049943;28;20052;-61
2023/11/22 02:57:53;;;;;;;4.20;3.40;;;1.70;99.90;;;;;;5059617;28;20048;-61
2023/11/22 03:00:19;;;;;;;5.25;2.83;;;1.60;99.90;;;;;;5050636;28;20453;-62
2023/11/22 03:02:53;;;;;;;4.25;3.10;;;1.60;99.90;;;;;;5050023;28;20052;-61
2023/11/22 03:05:20;;;;;;;3.97;3.10;;;1.50;99.90;;;;;;5068796;28;20101;-62
2023/11/22 03:07:46;;;;;;;5.25;3.40;;;1.40;99.90;;;;;;5065439;28;20529;-62
2023/11/22 03:10:12;;;;;;;5.57;2.58;;;1.30;99.90;;;;;;5052140;28;20049;-62
2023/11/22 03:12:39;;;;;;;3.28;2.97;;;1.30;99.90;;;;;;5064895;28;20125;-62
2023/11/22 03:15:05;;;;;;;2.22;1.98;;;1.30;99.90;;;;;;5068056;28;20074;-62
2023/11/22 03:17:32;;;;;;;3.88;2.72;;;1.20;99.90;;;;;;5049918;28;20051;-62
2023/11/22 03:19:58;;;;;;;5.10;3.30;;;1.30;99.90;;;;;;5066641;28;20045;-62
2023/11/22 03:22:29;;;;;;;10.02;3.45;;;1.20;99.90;;;;;;5068202;28;20509;-62
2023/11/22 03:24:56;;;;;;;4.00;3.17;;;1.10;99.90;;;;;;5049020;28;20567;-62
2023/11/22 03:27:23;;;;;;;4.50;2.58;;;1.10;99.90;;;;;;5068426;28;20052;-61
2023/11/22 03:29:49;;;;;;;3.25;2.90;;;1.10;99.90;;;;;;5066380;28;20108;-62
2023/11/22 03:32:15;;;;;;;6.18;2.90;;;1.00;99.90;;;;;;5067302;28;20395;-62
2023/11/22 03:34:40;;;;;;;8.75;3.35;;;1.10;99.90;;;;;;5067565;28;20044;-62
2023/11/22 03:37:07;;;;;;;5.72;2.83;;;1.10;99.90;;;;;;5067254;28;20048;-62
2023/11/22 03:39:32;;;;;;;2.95;2.58;;;1.10;99.90;;;;;;5053492;28;20115;-62
2023/11/22 03:41:58;;;;;;;5.68;3.00;;;1.20;99.90;;;;;;5048687;28;20612;-62
2023/11/22 03:44:24;;;;;;;5.57;3.25;;;1.20;99.90;;;;;;5067969;28;20127;-62
2023/11/22 03:46:49;;;;;;;3.88;3.20;;;1.20;99.90;;;;;;5066971;28;20055;-62
2023/11/22 03:49:15;;;;;;;5.00;3.13;;;1.20;99.90;;;;;;5067835;28;20040;-61
2023/11/22 03:51:42;;;;;;;6.40;2.53;;;1.20;99.90;;;;;;5065070;28;20458;-61
2023/11/22 03:54:10;;;;;;;4.80;3.08;;;1.20;99.90;;;;;;5066933;28;20560;-62
2023/11/22 03:56:36;;;;;;;3.65;2.60;;;1.20;99.90;;;;;;5049747;28;20041;-61
2023/11/22 03:59:03;;;;;;;3.28;2.80;;;1.10;99.90;;;;;;5066603;28;20055;-62
2023/11/22 04:01:29;;;;;;;6.78;3.88;;;1.10;99.90;;;;;;5059088;28;20134;-62
2023/11/22 04:03:54;;;;;;;5.03;2.83;;;1.10;99.90;;;;;;5048044;28;20079;-61
2023/11/22 04:06:21;;;;;;;4.93;2.78;;;1.10;99.90;;;;;;5049415;28;20485;-61
2023/11/22 04:08:48;;;;;;;4.32;2.90;;;1.10;99.90;;;;;;5032219;28;20124;-62
2023/11/22 04:11:14;;;;;;;4.65;3.08;;;1.00;99.90;;;;;;5052909;28;20495;-62
2023/11/22 04:13:40;;;;;;;7.38;4.47;;;1.00;99.90;;;;;;5067116;28;20055;-62
2023/11/22 04:16:08;;;;;;;8.07;3.58;;;1.00;99.90;;;;;;5048186;28;20040;-62
2023/11/22 04:18:38;;;;;;;4.55;3.15;;;1.00;99.90;;;;;;5049386;28;20056;-61
2023/11/22 04:21:04;;;;;;;6.18;4.05;;;1.00;99.90;;;;;;5046119;28;20127;-62
2023/11/22 04:23:33;;;;;;;5.65;3.30;;;0.90;99.90;;;;;;5032887;28;20056;-61
2023/11/22 04:26:00;;;;;;;5.03;3.10;;;0.90;99.90;;;;;;5064821;28;20052;-62
2023/11/22 04:28:27;;;;;;;6.00;3.80;;;0.90;99.90;;;;;;5067268;28;20044;-62
2023/11/22 04:30:53;;;;;;;5.13;3.55;;;0.90;99.90;;;;;;5047574;28;20127;-61
2023/11/22 04:33:20;;;;;;;5.45;3.17;;;0.90;99.90;;;;;;5066468;28;20040;-62
2023/11/22 04:35:46;;;;;;;4.20;2.88;;;0.80;99.90;;;;;;5067306;28;20102;-61
2023/11/22 04:38:12;;;;;;;7.22;3.17;;;0.80;99.90;;;;;;5065982;28;20046;-62
2023/11/22 04:40:38;;;;;;;4.90;3.58;;;0.90;99.90;;;;;;5044542;28;20049;-62
2023/11/22 04:43:03;;;;;;;8.10;4.22;;;0.90;99.90;;;;;;5061558;28;20515;-61
2023/11/22 04:45:29;;;;;;;9.13;3.65;;;1.10;99.90;;;;;;5067182;28;20533;-61
2023/11/22 04:47:57;;;;;;;9.98;4.13;;;1.20;99.90;;;;;;5066734;28;20051;-62
2023/11/22 04:50:24;;;;;;;7.82;3.97;;;1.20;99.90;;;;;;5065991;28;20409;-62
2023/11/22 04:52:50;;;;;;;8.45;3.90;;;1.40;99.90;;;;;;5048406;28;20410;-61
2023/11/22 04:55:16;;;;;;;9.63;4.70;;;1.40;99.90;;;;;;5065563;28;20076;-62
2023/11/22 04:57:42;;;;;;;9.48;4.53;;;1.40;99.90;;;;;;5067100;28;20490;-62
2023/11/22 05:00:08;;;;;;;5.30;4.20;;;1.50;99.90;;;;;;5063875;28;20036;-62
2023/11/22 05:02:35;;;;;;;9.30;3.92;;;1.50;99.90;;;;;;5033022;28;20403;-61
2023/11/22 05:05:01;;;;;;;6.22;4.13;;;1.50;99.90;;;;;;5060570;28;20032;-62
2023/11/22 05:07:26;;;;;;;11.30;4.88;;;1.50;99.90;;;;;;5066385;28;20069;-61
2023/11/22 05:09:52;;;;;;;7.53;4.53;;;1.40;99.90;;;;;;5058526;28;20052;-61
2023/11/22 05:12:18;;;;;;;4.38;3.67;;;1.40;99.90;;;;;;5037692;28;20041;-62
2023/11/22 05:14:45;;;;;;;6.75;4.40;;;1.40;99.90;;;;;;5049268;28;20482;-62
2023/11/22 05:17:12;;;;;;;5.70;4.40;;;1.40;99.90;;;;;;5069458;28;20430;-61
2023/11/22 05:19:38;;;;;;;6.93;4.05;;;1.40;99.90;;;;;;5070476;28;20043;-62
2023/11/22 05:22:04;;;;;;;6.25;3.97;;;1.30;99.90;;;;;;5069582;28;20044;-61
2023/11/22 05:24:30;;;;;;;4.43;3.42;;;1.30;99.90;;;;;;5037521;28;20048;-62
2023/11/22 05:26:56;;;;;;;5.45;3.70;;;1.40;99.90;;;;;;5069869;28;20082;-61
2023/11/22 05:29:22;;;;;;;7.57;4.15;;;1.30;99.90;;;;;;5069454;28;20075;-61
2023/11/22 05:31:48;;;;;;;7.28;4.03;;;1.20;99.90;;;;;;5052049;28;20518;-62
2023/11/22 05:34:14;;;;;;;8.75;4.53;;;1.20;99.90;;;;;;5049961;28;20056;-62
2023/11/22 05:36:40;;;;;;;6.53;3.83;;;1.20;99.90;;;;;;5052162;28;20137;-61
2023/11/22 05:39:06;;;;;;;10.98;3.35;;;1.10;99.90;;;;;;5051304;28;20513;-61
2023/11/22 05:41:32;;;;;;;5.57;3.72;;;1.10;99.90;;;;;;5051753;28;20039;-61
2023/11/22 05:43:58;;;;;;;4.60;3.72;;;1.10;99.90;;;;;;5061058;28;20053;-62
2023/11/22 05:46:24;;;;;;;6.22;3.78;;;1.10;99.90;;;;;;5064171;28;20040;-61
2023/11/22 05:48:54;;;;;;;7.43;3.55;;;1.00;99.90;;;;;;5069977;28;20094;-62
2023/11/22 05:51:20;;;;;;;5.75;3.47;;;1.10;99.90;;;;;;5050611;28;20138;-61
2023/11/22 05:53:46;;;;;;;4.25;3.40;;;1.00;99.90;;;;;;5067075;28;20071;-61
2023/11/22 05:56:12;;;;;;;8.25;4.32;;;1.00;99.90;;;;;;5048715;28;20033;-61
2023/11/22 05:58:39;;;;;;;5.05;3.63;;;1.00;99.90;;;;;;5049517;28;20047;-62
2023/11/22 06:01:05;;;;;;;6.20;4.13;;;1.00;99.90;;;;;;5050735;28;20056;-62
2023/11/22 06:03:32;;;;;;;6.60;4.53;;;0.90;99.90;;;;;;5068843;28;20313;-61
2023/11/22 06:05:58;;;;;;;8.02;4.80;;;0.90;99.90;;;;;;5060909;28;20049;-61
2023/11/22 06:08:24;;;;;;;6.82;4.68;;;0.90;99.90;;;;;;5050670;28;20491;-62
2023/11/22 06:10:51;;;;;;;7.85;4.47;;;0.90;99.90;;;;;;5069688;28;20570;-62
2023/11/22 06:13:18;;;;;;;12.13;4.65;;;0.90;99.90;;;;;;5068352;28;20197;-62
2023/11/22 06:15:45;;;;;;;9.90;4.63;;;0.90;99.90;;;;;;5049943;28;20459;-61
2023/11/22 06:18:13;;;;;;;6.97;4.90;;;0.90;99.90;;;;;;5050810;28;20106;-62
2023/11/22 06:20:40;;;;;;;11.13;5.05;;;0.90;99.90;;;;;;5072633;28;20371;-62
2023/11/22 06:23:05;;;;;;;7.95;4.95;;;0.90;99.90;;;;;;5066198;28;20040;-61
2023/11/22 06:25:31;;;;;;;6.00;4.38;;;0.90;99.90;;;;;;5059211;28;20061;-61
2023/11/22 06:27:57;;;;;;;9.73;4.95;;;1.00;99.90;;;;;;5081737;28;20049;-61
2023/11/22 06:30:24;;;;;;;9.82;4.32;;;1.00;99.90;;;;;;5075348;28;20114;-61
2023/11/22 06:32:51;;;;;;;9.90;5.40;;;1.00;99.90;;;;;;5067422;28;20033;-61
2023/11/22 06:35:17;;;;;;;8.07;4.97;;;1.00;99.90;;;;;;5056967;28;20052;-61
2023/11/22 06:37:43;;;;;;;15.85;5.32;;;1.00;99.90;;;;;;5049900;28;20033;-61
2023/11/22 06:40:12;;;;;;;9.15;5.10;;;1.00;99.90;;;;;;5063219;28;20124;-61
2023/11/22 06:42:38;;;;;;;10.80;5.35;;;1.00;99.90;;;;;;5041980;28;20487;-61
2023/11/22 06:45:10;;;;;;;7.65;4.97;;;1.10;99.90;;;;;;5040377;28;20040;-62
2023/11/22 06:47:37;;;;;;;8.63;4.50;;;1.10;99.90;;;;;;5063186;28;20071;-61
2023/11/22 06:50:08;;;;;;;8.02;5.22;;;1.10;99.90;;;;;;5041719;28;20045;-61
2023/11/22 06:52:39;;;;;;;8.32;4.68;;;1.10;99.90;;;;;;5058720;28;20483;-62
2023/11/22 06:55:07;;;;;;;7.55;4.78;;;1.10;99.90;;;;;;5048191;28;20080;-62
2023/11/22 06:57:36;;;;;;;7.05;4.72;;;1.00;99.90;;;;;;5039971;28;20041;-61
2023/11/22 07:00:09;;;;;;;11.15;5.38;;;1.00;99.90;;;;;;5048528;28;20048;-61
2023/11/22 07:02:35;;;;;;;8.43;5.10;;;1.00;99.90;;;;;;5046100;28;20493;-61
2023/11/22 07:05:08;;;;;;;9.48;5.00;;;1.00;99.90;;;;;;5049231;28;20128;-62
2023/11/22 07:07:38;;;;;;;8.13;4.85;;;1.00;99.90;;;;;;5056782;28;20454;-61
2023/11/22 07:10:05;;;;;;;7.28;4.72;;;1.00;99.90;;;;;;5063671;28;20049;-61
2023/11/22 07:12:32;;;;;;;15.18;5.47;;;1.00;99.90;;;;;;5067613;28;20067;-63
2023/11/22 07:14:59;;;;;;;7.93;5.38;;;1.00;99.90;;;;;;5068293;28;20478;-63
2023/11/22 07:17:27;;;;;;;10.27;5.40;;;1.00;99.90;;;;;;5067269;28;20090;-63
2023/11/22 07:19:54;;;;;;;8.20;5.13;;;1.00;99.90;;;;;;5055436;28;20451;-63
2023/11/22 07:22:22;;;;;;;10.02;5.05;;;1.00;99.90;;;;;;5029718;28;20499;-63
2023/11/22 07:24:51;;;;;;;9.02;5.00;;;1.10;99.90;;;;;;5067743;28;20066;-63
2023/11/22 07:27:19;;;;;;;7.50;4.63;;;1.10;99.90;;;;;;5067722;28;20070;-63
2023/11/22 07:29:46;;;;;;;7.80;4.50;;;1.10;99.90;;;;;;5062472;28;20040;-63
2023/11/22 07:32:12;;;;;;;6.32;4.30;;;1.10;99.90;;;;;;5059587;28;20612;-63
2023/11/22 07:34:39;;;;;;;9.77;5.50;;;1.10;99.90;;;;;;5043028;28;20390;-63
2023/11/22 07:37:08;;;;;;;11.27;5.65;;;1.20;99.90;;;;;;5041110;28;20044;-62
2023/11/22 07:39:35;;;;;;;12.55;5.43;;;1.20;99.90;;;;;;5059000;28;20041;-62
2023/11/22 07:42:07;;;;;;;11.18;5.80;;;1.20;99.90;;;;;;5048040;28;20040;-62
2023/11/22 07:44:35;;;;;;;13.52;5.40;;;1.30;99.90;;;;;;5047157;28;20080;-62
2023/11/22 07:47:02;;;;;;;6.78;4.78;;;1.30;99.90;;;;;;5066268;28;20123;-62
2023/11/22 07:49:28;;;;;;;8.05;5.60;;;1.40;99.90;;;;;;5062101;28;20398;-62
2023/11/22 07:51:56;;;;;;;9.73;5.95;;;1.40;99.90;;;;;;5032674;28;20045;-62
2023/11/22 07:54:22;;;;;;;10.32;5.90;;;1.40;99.90;;;;;;5066434;28;20383;-62
2023/11/22 07:56:52;;;;;;;10.10;6.25;;;1.50;99.90;;;;;;5063128;28;20399;-62
2023/11/22 07:59:18;;;;;;;10.98;6.50;;;1.50;99.90;;;;;;5061688;28;20123;-62
2023/11/22 08:01:47;;;;;;;12.95;6.10;;;1.50;99.90;;;;;;5063489;28;20043;-62
2023/11/22 08:04:13;;;;;;;9.40;5.75;;;1.60;99.90;;;;;;5047449;28;20073;-62
2023/11/22 08:06:39;;;;;;;9.30;5.72;;;1.70;99.90;;;;;;5086478;28;20044;-62
2023/11/22 08:09:05;;;;;;;12.48;6.60;;;1.70;99.90;;;;;;5066408;28;20446;-62
2023/11/22 08:11:31;;;;;;;11.80;6.22;;;1.70;99.90;;;;;;5061821;28;20093;-62
2023/11/22 08:13:58;;;;;;;10.23;6.35;;;1.80;99.90;;;;;;5064335;28;20572;-62
2023/11/22 08:16:28;;;;;;;12.95;6.45;;;1.90;99.90;;;;;;5054633;28;20082;-62
2023/11/22 08:18:53;;;;;;;13.07;6.47;;;2.00;99.90;;;;;;5039330;28;20041;-62
2023/11/22 08:21:19;;;;;;;9.55;5.55;;;2.00;99.90;;;;;;5044853;28;20052;-62
2023/11/22 08:23:48;;;;;;;10.85;6.35;;;2.00;99.90;;;;;;5044035;28;20040;-62
2023/11/22 08:26:15;;;;;;;9.30;5.47;;;2.10;99.90;;;;;;5059149;28;20068;-62
2023/11/22 08:28:41;;;;;;;15.80;6.13;;;2.20;99.90;;;;;;5037114;28;20056;-62
2023/11/22 08:31:09;;;;;;;11.70;5.38;;;2.20;99.90;;;;;;5052610;28;20036;-62
2023/11/22 08:33:39;;;;;;;11.73;5.60;;;2.30;99.90;;;;;;5064013;28;20040;-62
2023/11/22 08:36:06;;;;;;;9.23;5.90;;;2.30;99.90;;;;;;5059682;28;20040;-62
2023/11/22 08:38:35;;;;;;;13.73;6.50;;;2.30;99.90;;;;;;5021820;28;20399;-62
2023/11/22 08:41:07;;;;;;;13.75;6.25;;;2.40;99.90;;;;;;5048548;28;20135;-62
2023/11/22 08:43:34;;;;;;;12.35;6.35;;;2.40;99.90;;;;;;5051785;28;20041;-62
2023/11/22 08:46:01;;;;;;;10.88;5.80;;;2.50;99.90;;;;;;5079777;28;20048;-62
2023/11/22 08:48:27;;;;;;;8.48;4.88;;;2.50;99.90;;;;;;5063887;28;20120;-62
2023/11/22 08:50:55;;;;;;;17.58;6.18;;;2.50;99.90;;;;;;5063220;28;20131;-62
2023/11/22 08:53:21;;;;;;;7.97;5.13;;;2.60;99.90;;;;;;5059906;28;20495;-63
2023/11/22 08:55:48;;;;;;;12.68;6.82;;;2.60;99.90;;;;;;5052520;28;20110;-63
2023/11/22 08:58:13;;;;;;;9.10;5.93;;;2.70;99.90;;;;;;5064702;28;20048;-63
2023/11/22 09:00:41;;;;;;;13.13;5.93;;;2.70;99.90;;;;;;5058781;28;20060;-63
2023/11/22 09:03:08;;;;;;;10.55;6.20;;;2.70;99.90;;;;;;5070069;28;20059;-62
2023/11/22 09:05:34;;;;;;;11.18;6.20;;;2.70;99.90;;;;;;5064106;28;20379;-63
2023/11/22 09:08:00;;;;;;;9.10;5.22;;;2.80;99.90;;;;;;5064024;28;20095;-62
2023/11/22 09:10:26;;;;;;;10.30;6.13;;;2.80;99.90;;;;;;5047838;28;20044;-63
2023/11/22 09:12:52;;;;;;;9.93;5.82;;;2.80;99.90;;;;;;5052401;28;20099;-62
2023/11/22 09:15:25;;;;;;;9.20;5.75;;;2.80;99.90;;;;;;5068323;28;20044;-63
2023/11/22 09:17:53;;;;;;;11.73;6.10;;;2.80;99.90;;;;;;5051175;28;20522;-63
2023/11/22 09:20:19;;;;;;;10.95;5.72;;;2.80;99.90;;;;;;5026286;28;20094;-63
2023/11/22 09:22:50;;;;;;;13.15;5.68;;;2.80;99.90;;;;;;5065657;28;20087;-63
2023/11/22 09:25:19;;;;;;;8.20;5.63;;;2.80;99.90;;;;;;5043110;28;20102;-63
2023/11/22 09:27:51;;;;;;;8.95;5.20;;;2.80;99.90;;;;;;5064599;28;20041;-63
2023/11/22 09:30:32;;;;;;;10.68;5.13;;;2.80;99.90;;;;;;5070367;28;20126;-62
2023/11/22 09:33:15;;;;;;;9.43;5.00;;;2.90;99.90;;;;;;5069334;28;20052;-62
2023/11/22 09:35:44;;;;;;;10.27;5.13;;;3.00;99.90;;;;;;5042135;28;20171;-63
2023/11/22 09:38:13;;;;;;;11.13;5.03;;;3.00;99.90;;;;;;5049604;28;20049;-63
2023/11/22 09:40:43;;;;;;;9.60;5.43;;;3.00;99.90;;;;;;5068936;28;20475;-63
2023/11/22 09:43:09;;;;;;;;;;;3.10;99.90;;;;;;5070435;28;20090;-63
2023/11/22 09:45:37;;;;;;;8.65;4.68;;;3.10;99.90;;;;;;5047721;28;19925;-63
2023/11/22 09:48:16;;;;;;;9.93;5.70;;;3.20;99.90;;;;;;5063530;28;20044;-62
2023/11/22 09:50:59;;;;;;;14.95;5.15;;;3.20;99.90;;;;;;5069876;28;20052;-63
2023/11/22 09:53:40;;;;;;;10.38;5.70;;;3.30;99.90;;;;;;5050942;28;20051;-63
2023/11/22 09:56:08;;;;;;;10.88;5.75;;;3.40;99.90;;;;;;5050555;28;20059;-62
2023/11/22 09:58:36;;;;;;;6.68;4.40;;;3.40;99.90;;;;;;5069067;28;20055;-63
2023/11/22 10:01:03;;;;;;;7.90;4.38;;;3.40;99.90;;;;;;5072148;28;20509;-63
2023/11/22 10:03:29;;;;;;;8.32;5.30;;;3.40;99.90;;;;;;5082744;28;20071;-63
2023/11/22 10:05:59;;;;;;;9.40;4.72;;;3.50;99.90;;;;;;5060155;28;20560;-62
2023/11/22 10:08:31;;;;;;;10.95;5.00;;;3.40;99.90;;;;;;5069235;28;20040;-62
2023/11/22 10:10:59;;;;;;;5.93;3.75;;;3.50;99.90;;;;;;5065785;28;20119;-63
2023/11/22 10:13:25;;;;;;;8.88;5.10;;;3.60;99.90;;;;;;5069424;28;20037;-62
2023/11/22 10:15:55;;;;;;;7.22;4.30;;;3.50;99.90;;;;;;5068785;28;20044;-62
2023/11/22 10:18:21;;;;;;;11.10;5.13;;;3.50;99.90;;;;;;5060681;28;20394;-62
2023/11/22 10:20:50;;;;;;;10.63;5.53;;;3.60;99.90;;;;;;5051320;28;20045;-62
2023/11/22 10:23:18;;;;;;;6.97;4.43;;;3.60;99.90;;;;;;5068914;28;20064;-62
2023/11/22 10:25:53;;;;;;;7.55;4.50;;;3.60;99.90;;;;;;5069178;28;20421;-62
2023/11/22 10:28:25;;;;;;;9.25;5.22;;;3.70;99.90;;;;;;5063828;28;20041;-63
2023/11/22 10:30:51;;;;;;;8.93;4.90;;;3.80;99.90;;;;;;5050842;28;20057;-62
2023/11/22 10:33:19;;;;;;;7.72;4.97;;;3.80;99.90;;;;;;5064011;28;20394;-63
2023/11/22 10:35:49;;;;;;;5.88;4.30;;;3.80;99.90;;;;;;5059740;28;20129;-62
2023/11/22 10:38:18;;;;;;;10.45;4.80;;;4.00;99.90;;;;;;5058035;28;20075;-63
2023/11/22 10:40:45;;;;;;;7.40;4.55;;;4.00;99.90;;;;;;5045378;28;20385;-62
2023/11/22 10:43:17;;;;;;;12.98;4.88;;;4.00;99.90;;;;;;5063155;28;20128;-63
2023/11/22 10:45:46;;;;;;;10.02;5.00;;;4.00;99.90;;;;;;5073419;28;20049;-62
2023/11/22 10:48:18;;;;;;;8.73;4.05;;;4.00;99.90;;;;;;5079723;28;20397;-63
2023/11/22 10:50:45;;;;;;;7.72;4.70;;;4.00;99.90;;;;;;5078574;28;20564;-63
2023/11/22 10:53:16;;;;;;;13.05;4.07;;;4.00;99.90;;;;;;5044937;28;20487;-62
2023/11/22 10:55:47;;;;;;;7.20;4.68;;;4.00;99.90;;;;;;5045637;28;20344;-62
2023/11/22 10:58:17;;;;;;;7.93;4.10;;;4.00;99.90;;;;;;5064270;28;20044;-62
2023/11/22 11:00:43;;;;;;;9.25;4.50;;;4.00;99.90;;;;;;5037821;28;20406;-62
2023/11/22 11:03:17;;;;;;;8.02;4.50;;;4.10;99.90;;;;;;5067139;28;20047;-62
2023/11/22 11:05:52;;;;;;;6.18;3.85;;;4.20;99.90;;;;;;5064004;28;20059;-62
2023/11/22 11:08:20;;;;;;;6.57;3.47;;;4.20;99.90;;;;;;5065349;28;20072;-62
2023/11/22 11:10:46;;;;;;;8.63;4.97;;;4.40;99.90;;;;;;5048984;28;20045;-63
2023/11/22 11:13:13;;;;;;;8.90;4.15;;;4.50;99.90;;;;;;5048589;28;20552;-62
2023/11/22 11:15:43;;;;;;;5.55;3.28;;;4.70;99.90;;;;;;5069504;28;20618;-63
2023/11/22 11:18:15;;;;;;;8.45;4.45;;;4.80;99.90;;;;;;5067848;28;20048;-62
2023/11/22 11:21:07;;;;;;;8.88;4.60;;;4.90;99.90;;;;;;5056626;28;20037;-62
2023/11/22 11:23:33;;;;;;;6.50;3.60;;;4.90;99.90;;;;;;5059109;28;20447;-62
2023/11/22 11:26:08;;;;;;;7.25;4.03;;;5.00;99.90;;;;;;5055354;28;20151;-62
2023/11/22 11:28:45;;;;;;;7.30;4.88;;;5.10;99.90;;;;;;5065555;28;20217;-62
2023/11/22 11:31:11;;;;;;;8.60;5.18;;;5.20;99.90;;;;;;5069247;28;20040;-62
2023/11/22 11:33:57;;;;;;;8.40;3.50;;;5.20;99.90;;;;;;5067782;28;20036;-62
2023/11/22 11:36:27;;;;;;;7.10;4.03;;;5.30;99.90;;;;;;5064405;28;20048;-62
2023/11/22 11:38:55;;;;;;;6.72;4.07;;;5.30;99.90;;;;;;5030945;28;20134;-62
2023/11/22 11:41:27;;;;;;;8.07;4.90;;;5.30;99.90;;;;;;5059402;28;20116;-63
2023/11/22 11:43:55;;;;;;;8.32;4.03;;;5.40;99.90;;;;;;5053360;28;20139;-62
2023/11/22 11:47:12;;;;;;;7.80;3.33;;;5.50;99.90;;;;;;5064753;28;20084;-62
2023/11/22 11:49:39;;;;;;;7.47;4.20;;;5.60;99.90;;;;;;5064103;28;20036;-62
2023/11/22 11:52:07;;;;;;;10.15;4.60;;;5.80;99.90;;;;;;5076453;28;20111;-62
2023/11/22 11:54:35;;;;;;;5.25;4.03;;;5.80;99.90;;;;;;5085027;28;20048;-62
2023/11/22 11:57:02;;;;;;;6.55;4.15;;;5.80;99.90;;;;;;5084222;28;20093;-63
2023/11/22 11:59:29;;;;;;;5.05;2.42;;;5.80;99.90;;;;;;5083769;28;20117;-62
2023/11/22 12:01:59;;;;;;;7.22;4.22;;;5.70;99.90;;;;;;5064527;28;20045;-62
2023/11/22 12:04:32;;;;;;;6.93;3.97;;;5.70;99.90;;;;;;5057876;28;20470;-63
2023/11/22 12:07:02;;;;;;;6.78;3.53;;;5.60;99.90;;;;;;5058027;28;20098;-62
2023/11/22 12:09:35;;;;;;;5.70;3.53;;;5.60;99.90;;;;;;5050383;28;20487;-62
2023/11/22 12:12:03;;;;;;;6.18;3.88;;;5.60;99.90;;;;;;5066668;28;20048;-62
2023/11/22 12:15:14;;;;;;;5.18;3.90;;;5.60;99.90;;;;;;5053257;28;20043;-62
2023/11/22 12:17:43;;;;;;;5.50;4.38;;;5.60;99.90;;;;;;5076024;28;20052;-62
2023/11/22 12:20:47;;;;;;;7.40;3.75;;;5.50;99.90;;;;;;5076640;28;20048;-62
2023/11/22 12:23:13;;;;;;;6.07;3.60;;;5.50;99.90;;;;;;5059753;28;20047;-62
2023/11/22 12:25:39;;;;;;;3.08;2.75;;;5.50;99.90;;;;;;5060095;28;20440;-62
2023/11/22 12:28:07;;;;;;;6.57;3.60;;;5.50;99.90;;;;;;5068865;28;20032;-62
2023/11/22 12:33:27;;;;;;;5.45;3.40;;;5.40;99.90;;;;;;5076103;22;20140;-62
2023/11/22 12:35:53;;;;;;;6.43;3.70;;;5.40;99.90;;;;;;5076067;28;20083;-62
2023/11/22 12:38:20;;;;;;;4.20;2.80;;;5.30;99.90;;;;;;5074989;28;20036;-62
2023/11/22 12:44:24;;;;;;;3.80;2.75;;;5.20;99.90;;;;;;5066804;28;20056;-62
2023/11/22 12:46:57;;;;;;;2.03;1.77;;;5.20;99.90;;;;;;5077293;28;20043;-62
2023/11/22 12:49:23;;;;;;;3.58;3.13;;;5.20;99.90;;;;;;5081691;28;20562;-62
2023/11/22 12:52:14;;;;;;;4.05;2.60;;;5.10;99.90;;;;;;5060742;28;21011;-62
2023/11/22 12:54:42;;;;;;;5.75;3.35;;;5.10;99.90;;;;;;5056931;28;20060;-62
2023/11/22 12:57:12;;;;;;;4.93;3.10;;;5.10;99.90;;;;;;5053727;28;20053;-62
2023/11/22 12:59:39;;;;;;;3.13;2.83;;;5.10;99.90;;;;;;5030697;28;20416;-62
2023/11/22 13:02:06;;;;;;;5.93;2.92;;;5.10;99.90;;;;;;5046868;28;20425;-62
2023/11/22 13:04:33;;;;;;;4.68;3.35;;;5.10;99.90;;;;;;5043359;28;20037;-62
2023/11/22 13:06:59;;;;;;;4.07;3.05;;;5.10;99.90;;;;;;5046552;28;20041;-62